sensor_id;sensor_type;location;lat;lon;timestamp;temperature;humidity
26182;DHT22;13927;51.534;11.866;2022-10-16T00:01:19;16.30;99.90
26182;DHT22;13927;51.534;11.866;2022-10-16T00:03:47;16.40;99.90
26182;DHT22;13927;51.534;11.866;2022-10-16T00:06:14;16.50;99.90
26182;DHT22;13927;51.534;11.866;2022-10-16T00:08:41;16.50;99.90
26182;DHT22;13927;51.534;11.866;2022-10-16T00:11:13;16.60;99.90
26182;DHT22;13927;51.534;11.866;2022-10-16T00:13:41;16.60;99.90
26182;DHT22;13927;51.534;11.866;2022-10-16T00:16:08;16.60;99.90
26182;DHT22;13927;51.534;11.866;2022-10-16T00:18:35;16.50;99.90
26182;DHT22;13927;51.534;11.866;2022-10-16T00:21:08;16.50;99.90
26182;DHT22;13927;51.534;11.866;2022-10-16T00:23:50;16.50;99.90
26182;DHT22;13927;51.534;11.866;2022-10-16T00:26:21;16.40;99.90
26182;DHT22;13927;51.534;11.866;2022-10-16T00:28:48;16.30;99.90
26182;DHT22;13927;51.534;11.866;2022-10-16T00:31:17;16.30;99.90
26182;DHT22;13927;51.534;11.866;2022-10-16T00:33:44;16.30;99.90
26182;DHT22;13927;51.534;11.866;2022-10-16T00:36:12;16.30;99.90
26182;DHT22;13927;51.534;11.866;2022-10-16T00:38:40;16.20;99.90
26182;DHT22;13927;51.534;11.866;2022-10-16T00:41:07;16.20;99.90
26182;DHT22;13927;51.534;11.866;2022-10-16T00:46:24;16.10;99.90
26182;DHT22;13927;51.534;11.866;2022-10-16T00:51:37;16.00;99.90
26182;DHT22;13927;51.534;11.866;2022-10-16T00:54:13;16.00;99.90
26182;DHT22;13927;51.534;11.866;2022-10-16T00:56:41;16.00;99.90
26182;DHT22;13927;51.534;11.866;2022-10-16T00:59:15;15.90;99.90
26182;DHT22;13927;51.534;11.866;2022-10-16T01:01:43;15.90;99.90
26182;DHT22;13927;51.534;11.866;2022-10-16T01:04:09;15.80;99.90
26182;DHT22;13927;51.534;11.866;2022-10-16T01:07:06;15.80;99.90
26182;DHT22;13927;51.534;11.866;2022-10-16T01:15:30;15.70;99.90
26182;DHT22;13927;51.534;11.866;2022-10-16T01:26:18;15.40;99.90
26182;DHT22;13927;51.534;11.866;2022-10-16T01:29:02;15.30;99.90
26182;DHT22;13927;51.534;11.866;2022-10-16T01:31:34;15.20;99.90
26182;DHT22;13927;51.534;11.866;2022-10-16T01:34:14;15.10;99.90
26182;DHT22;13927;51.534;11.866;2022-10-16T01:36:54;15.10;99.90
26182;DHT22;13927;51.534;11.866;2022-10-16T01:39:29;15.00;99.90
26182;DHT22;13927;51.534;11.866;2022-10-16T01:42:19;14.90;99.90
26182;DHT22;13927;51.534;11.866;2022-10-16T01:44:51;14.90;99.90
26182;DHT22;13927;51.534;11.866;2022-10-16T01:47:21;14.90;99.90
26182;DHT22;13927;51.534;11.866;2022-10-16T01:49:48;14.80;99.90
26182;DHT22;13927;51.534;11.866;2022-10-16T01:52:18;14.70;99.90
26182;DHT22;13927;51.534;11.866;2022-10-16T01:54:47;14.70;99.90
26182;DHT22;13927;51.534;11.866;2022-10-16T01:57:16;14.60;99.90
26182;DHT22;13927;51.534;11.866;2022-10-16T01:59:46;14.60;99.90
26182;DHT22;13927;51.534;11.866;2022-10-16T02:02:15;14.50;99.90
26182;DHT22;13927;51.534;11.866;2022-10-16T02:04:47;14.50;99.90
26182;DHT22;13927;51.534;11.866;2022-10-16T02:07:15;14.50;99.90
26182;DHT22;13927;51.534;11.866;2022-10-16T02:09:41;14.40;99.90
26182;DHT22;13927;51.534;11.866;2022-10-16T02:12:29;14.40;99.90
26182;DHT22;13927;51.534;11.866;2022-10-16T02:14:57;14.50;99.90
26182;DHT22;13927;51.534;11.866;2022-10-16T02:17:23;14.50;99.90
26182;DHT22;13927;51.534;11.866;2022-10-16T02:19:52;14.50;99.90
26182;DHT22;13927;51.534;11.866;2022-10-16T02:22:28;14.60;99.90
26182;DHT22;13927;51.534;11.866;2022-10-16T02:25:22;14.70;99.90
26182;DHT22;13927;51.534;11.866;2022-10-16T02:30:39;14.80;99.90
26182;DHT22;13927;51.534;11.866;2022-10-16T02:33:10;14.80;99.90
26182;DHT22;13927;51.534;11.866;2022-10-16T02:35:39;14.80;99.90
26182;DHT22;13927;51.534;11.866;2022-10-16T02:38:06;14.80;99.90
26182;DHT22;13927;51.534;11.866;2022-10-16T02:40:33;14.80;99.90
26182;DHT22;13927;51.534;11.866;2022-10-16T02:42:59;14.80;99.90
26182;DHT22;13927;51.534;11.866;2022-10-16T02:45:25;14.80;99.90
26182;DHT22;13927;51.534;11.866;2022-10-16T02:47:51;14.80;99.90
26182;DHT22;13927;51.534;11.866;2022-10-16T02:50:17;14.80;99.90
26182;DHT22;13927;51.534;11.866;2022-10-16T02:52:43;14.80;99.90
26182;DHT22;13927;51.534;11.866;2022-10-16T02:55:09;14.80;99.90
26182;DHT22;13927;51.534;11.866;2022-10-16T02:57:34;14.80;99.90
26182;DHT22;13927;51.534;11.866;2022-10-16T03:00:07;14.80;99.90
26182;DHT22;13927;51.534;11.866;2022-10-16T03:02:34;14.90;99.90
26182;DHT22;13927;51.534;11.866;2022-10-16T03:05:00;14.90;99.90
26182;DHT22;13927;51.534;11.866;2022-10-16T03:07:25;14.80;99.90
26182;DHT22;13927;51.534;11.866;2022-10-16T03:09:51;14.80;99.90
26182;DHT22;13927;51.534;11.866;2022-10-16T03:12:17;14.80;99.90
26182;DHT22;13927;51.534;11.866;2022-10-16T03:14:42;14.70;99.90
26182;DHT22;13927;51.534;11.866;2022-10-16T03:17:08;14.70;99.90
26182;DHT22;13927;51.534;11.866;2022-10-16T03:19:34;14.70;99.90
26182;DHT22;13927;51.534;11.866;2022-10-16T03:22:01;14.70;99.90
26182;DHT22;13927;51.534;11.866;2022-10-16T03:24:27;14.60;99.90
26182;DHT22;13927;51.534;11.866;2022-10-16T03:26:53;14.60;99.90
26182;DHT22;13927;51.534;11.866;2022-10-16T03:29:18;14.60;99.90
26182;DHT22;13927;51.534;11.866;2022-10-16T03:31:44;14.60;99.90
26182;DHT22;13927;51.534;11.866;2022-10-16T03:34:10;14.60;99.90
26182;DHT22;13927;51.534;11.866;2022-10-16T03:36:35;14.50;99.90
26182;DHT22;13927;51.534;11.866;2022-10-16T03:39:01;14.50;99.90
26182;DHT22;13927;51.534;11.866;2022-10-16T03:41:27;14.50;99.90
26182;DHT22;13927;51.534;11.866;2022-10-16T03:43:53;14.50;99.90
26182;DHT22;13927;51.534;11.866;2022-10-16T03:46:19;14.40;99.90
26182;DHT22;13927;51.534;11.866;2022-10-16T03:48:44;14.40;99.90
26182;DHT22;13927;51.534;11.866;2022-10-16T03:51:10;14.40;99.90
26182;DHT22;13927;51.534;11.866;2022-10-16T03:53:36;14.30;99.90
26182;DHT22;13927;51.534;11.866;2022-10-16T03:56:02;14.30;99.90
26182;DHT22;13927;51.534;11.866;2022-10-16T03:58:27;14.30;99.90
26182;DHT22;13927;51.534;11.866;2022-10-16T04:00:53;14.30;99.90
26182;DHT22;13927;51.534;11.866;2022-10-16T04:03:19;14.30;99.90
26182;DHT22;13927;51.534;11.866;2022-10-16T04:05:45;14.30;99.90
26182;DHT22;13927;51.534;11.866;2022-10-16T04:08:10;14.20;99.90
26182;DHT22;13927;51.534;11.866;2022-10-16T04:10:36;14.20;99.90
26182;DHT22;13927;51.534;11.866;2022-10-16T04:13:02;14.30;99.90
26182;DHT22;13927;51.534;11.866;2022-10-16T04:15:28;14.20;99.90
26182;DHT22;13927;51.534;11.866;2022-10-16T04:17:54;14.30;99.90
26182;DHT22;13927;51.534;11.866;2022-10-16T04:20:19;14.30;99.90
26182;DHT22;13927;51.534;11.866;2022-10-16T04:22:45;14.30;99.90
26182;DHT22;13927;51.534;11.866;2022-10-16T04:25:11;14.30;99.90
26182;DHT22;13927;51.534;11.866;2022-10-16T04:27:38;14.30;99.90
26182;DHT22;13927;51.534;11.866;2022-10-16T04:30:04;14.30;99.90
26182;DHT22;13927;51.534;11.866;2022-10-16T04:32:30;14.30;99.90
26182;DHT22;13927;51.534;11.866;2022-10-16T04:34:56;14.20;99.90
26182;DHT22;13927;51.534;11.866;2022-10-16T04:37:26;14.20;99.90
26182;DHT22;13927;51.534;11.866;2022-10-16T04:39:52;14.20;99.90
26182;DHT22;13927;51.534;11.866;2022-10-16T04:42:19;14.20;99.90
26182;DHT22;13927;51.534;11.866;2022-10-16T04:44:45;14.10;99.90
26182;DHT22;13927;51.534;11.866;2022-10-16T04:47:10;14.10;99.90
26182;DHT22;13927;51.534;11.866;2022-10-16T04:49:36;14.00;99.90
26182;DHT22;13927;51.534;11.866;2022-10-16T04:52:02;14.00;99.90
26182;DHT22;13927;51.534;11.866;2022-10-16T04:54:28;14.00;99.90
26182;DHT22;13927;51.534;11.866;2022-10-16T04:56:54;14.00;99.90
26182;DHT22;13927;51.534;11.866;2022-10-16T04:59:21;14.00;99.90
26182;DHT22;13927;51.534;11.866;2022-10-16T05:01:47;13.90;99.90
26182;DHT22;13927;51.534;11.866;2022-10-16T05:04:14;13.90;99.90
26182;DHT22;13927;51.534;11.866;2022-10-16T05:06:40;13.90;99.90
26182;DHT22;13927;51.534;11.866;2022-10-16T05:09:07;13.90;99.90
26182;DHT22;13927;51.534;11.866;2022-10-16T05:11:34;13.90;99.90
26182;DHT22;13927;51.534;11.866;2022-10-16T05:13:59;13.90;99.90
26182;DHT22;13927;51.534;11.866;2022-10-16T05:16:26;13.90;99.90
26182;DHT22;13927;51.534;11.866;2022-10-16T05:18:52;13.80;99.90
26182;DHT22;13927;51.534;11.866;2022-10-16T05:21:19;13.90;99.90
26182;DHT22;13927;51.534;11.866;2022-10-16T05:23:45;13.80;99.90
26182;DHT22;13927;51.534;11.866;2022-10-16T05:26:11;13.80;99.90
26182;DHT22;13927;51.534;11.866;2022-10-16T05:28:37;13.80;99.90
26182;DHT22;13927;51.534;11.866;2022-10-16T05:31:07;13.80;99.90
26182;DHT22;13927;51.534;11.866;2022-10-16T05:33:34;13.90;99.90
26182;DHT22;13927;51.534;11.866;2022-10-16T05:36:07;13.90;99.90
26182;DHT22;13927;51.534;11.866;2022-10-16T05:38:35;13.90;99.90
26182;DHT22;13927;51.534;11.866;2022-10-16T05:41:01;13.90;99.90
26182;DHT22;13927;51.534;11.866;2022-10-16T05:43:28;13.90;99.90
26182;DHT22;13927;51.534;11.866;2022-10-16T05:46:01;13.90;99.90
26182;DHT22;13927;51.534;11.866;2022-10-16T05:48:29;14.00;99.90
26182;DHT22;13927;51.534;11.866;2022-10-16T05:51:04;14.00;99.90
26182;DHT22;13927;51.534;11.866;2022-10-16T05:53:36;14.00;99.90
26182;DHT22;13927;51.534;11.866;2022-10-16T05:56:03;14.00;99.90
26182;DHT22;13927;51.534;11.866;2022-10-16T05:58:32;14.00;99.90
26182;DHT22;13927;51.534;11.866;2022-10-16T06:01:05;14.00;99.90
26182;DHT22;13927;51.534;11.866;2022-10-16T06:03:33;14.10;99.90
26182;DHT22;13927;51.534;11.866;2022-10-16T06:05:59;14.10;99.90
26182;DHT22;13927;51.534;11.866;2022-10-16T06:08:33;14.20;99.90
26182;DHT22;13927;51.534;11.866;2022-10-16T06:11:06;14.30;99.90
26182;DHT22;13927;51.534;11.866;2022-10-16T06:13:33;14.50;99.90
26182;DHT22;13927;51.534;11.866;2022-10-16T06:16:00;14.60;99.90
26182;DHT22;13927;51.534;11.866;2022-10-16T06:18:28;14.80;99.90
26182;DHT22;13927;51.534;11.866;2022-10-16T06:20:55;14.80;99.90
26182;DHT22;13927;51.534;11.866;2022-10-16T06:23:22;14.90;99.90
26182;DHT22;13927;51.534;11.866;2022-10-16T06:25:48;15.00;99.90
26182;DHT22;13927;51.534;11.866;2022-10-16T06:28:15;15.10;99.90
26182;DHT22;13927;51.534;11.866;2022-10-16T06:30:41;15.20;99.90
26182;DHT22;13927;51.534;11.866;2022-10-16T06:33:09;15.30;99.90
26182;DHT22;13927;51.534;11.866;2022-10-16T06:35:36;15.30;99.90
26182;DHT22;13927;51.534;11.866;2022-10-16T06:38:02;15.30;99.90
26182;DHT22;13927;51.534;11.866;2022-10-16T06:40:27;15.40;99.90
26182;DHT22;13927;51.534;11.866;2022-10-16T06:42:57;15.40;99.90
26182;DHT22;13927;51.534;11.866;2022-10-16T06:45:22;15.50;99.90
26182;DHT22;13927;51.534;11.866;2022-10-16T06:47:48;15.50;99.90
26182;DHT22;13927;51.534;11.866;2022-10-16T06:50:14;15.50;99.90
26182;DHT22;13927;51.534;11.866;2022-10-16T06:52:40;15.60;99.90
26182;DHT22;13927;51.534;11.866;2022-10-16T06:55:06;15.60;99.90
26182;DHT22;13927;51.534;11.866;2022-10-16T06:57:32;15.70;99.90
26182;DHT22;13927;51.534;11.866;2022-10-16T06:59:58;15.70;99.90
26182;DHT22;13927;51.534;11.866;2022-10-16T07:02:24;15.70;99.90
26182;DHT22;13927;51.534;11.866;2022-10-16T07:04:49;15.80;99.90
26182;DHT22;13927;51.534;11.866;2022-10-16T07:07:15;15.80;99.90
26182;DHT22;13927;51.534;11.866;2022-10-16T07:09:41;15.80;99.90
26182;DHT22;13927;51.534;11.866;2022-10-16T07:12:07;15.80;99.90
26182;DHT22;13927;51.534;11.866;2022-10-16T07:14:32;15.90;99.90
26182;DHT22;13927;51.534;11.866;2022-10-16T07:16:58;15.90;99.90
26182;DHT22;13927;51.534;11.866;2022-10-16T07:19:24;16.00;99.90
26182;DHT22;13927;51.534;11.866;2022-10-16T07:21:50;16.10;99.90
26182;DHT22;13927;51.534;11.866;2022-10-16T07:24:17;16.10;99.90
26182;DHT22;13927;51.534;11.866;2022-10-16T07:26:44;16.20;99.90
26182;DHT22;13927;51.534;11.866;2022-10-16T07:29:14;16.30;99.90
26182;DHT22;13927;51.534;11.866;2022-10-16T07:31:42;16.30;99.90
26182;DHT22;13927;51.534;11.866;2022-10-16T07:34:08;16.40;99.90
26182;DHT22;13927;51.534;11.866;2022-10-16T07:36:35;16.50;99.90
26182;DHT22;13927;51.534;11.866;2022-10-16T07:39:01;16.50;99.90
26182;DHT22;13927;51.534;11.866;2022-10-16T07:41:27;16.60;99.90
26182;DHT22;13927;51.534;11.866;2022-10-16T07:43:53;16.80;99.90
26182;DHT22;13927;51.534;11.866;2022-10-16T07:46:22;16.90;99.90
26182;DHT22;13927;51.534;11.866;2022-10-16T07:48:49;17.10;99.90
26182;DHT22;13927;51.534;11.866;2022-10-16T07:51:19;17.30;99.90
26182;DHT22;13927;51.534;11.866;2022-10-16T07:53:46;17.50;99.90
26182;DHT22;13927;51.534;11.866;2022-10-16T07:56:14;17.70;99.90
26182;DHT22;13927;51.534;11.866;2022-10-16T07:58:41;17.80;99.90
26182;DHT22;13927;51.534;11.866;2022-10-16T08:01:12;17.80;99.90
26182;DHT22;13927;51.534;11.866;2022-10-16T08:03:42;17.90;99.90
26182;DHT22;13927;51.534;11.866;2022-10-16T08:06:09;17.90;99.90
26182;DHT22;13927;51.534;11.866;2022-10-16T08:08:35;17.80;99.90
26182;DHT22;13927;51.534;11.866;2022-10-16T08:11:00;17.80;99.90
26182;DHT22;13927;51.534;11.866;2022-10-16T08:13:29;17.80;99.90
26182;DHT22;13927;51.534;11.866;2022-10-16T08:15:55;17.90;99.90
26182;DHT22;13927;51.534;11.866;2022-10-16T08:18:21;17.90;99.90
26182;DHT22;13927;51.534;11.866;2022-10-16T08:20:48;17.90;99.90
26182;DHT22;13927;51.534;11.866;2022-10-16T08:23:20;18.00;99.90
26182;DHT22;13927;51.534;11.866;2022-10-16T08:25:47;18.10;99.90
26182;DHT22;13927;51.534;11.866;2022-10-16T08:28:13;18.20;99.90
26182;DHT22;13927;51.534;11.866;2022-10-16T08:30:39;18.30;99.90
26182;DHT22;13927;51.534;11.866;2022-10-16T08:33:05;18.30;99.90
26182;DHT22;13927;51.534;11.866;2022-10-16T08:35:31;18.30;99.90
26182;DHT22;13927;51.534;11.866;2022-10-16T08:37:58;18.40;99.90
26182;DHT22;13927;51.534;11.866;2022-10-16T08:40:26;18.40;99.90
26182;DHT22;13927;51.534;11.866;2022-10-16T08:46:17;18.40;99.90
26182;DHT22;13927;51.534;11.866;2022-10-16T08:48:54;18.40;99.90
26182;DHT22;13927;51.534;11.866;2022-10-16T08:51:34;18.40;99.90
26182;DHT22;13927;51.534;11.866;2022-10-16T08:54:03;18.50;99.90
26182;DHT22;13927;51.534;11.866;2022-10-16T08:56:31;18.50;99.90
26182;DHT22;13927;51.534;11.866;2022-10-16T08:59:00;18.60;99.90
26182;DHT22;13927;51.534;11.866;2022-10-16T09:01:46;18.80;99.90
26182;DHT22;13927;51.534;11.866;2022-10-16T09:07:00;18.90;99.90
26182;DHT22;13927;51.534;11.866;2022-10-16T09:18:38;19.50;99.90
26182;DHT22;13927;51.534;11.866;2022-10-16T09:21:35;19.70;99.90
26182;DHT22;13927;51.534;11.866;2022-10-16T09:24:15;19.90;99.90
26182;DHT22;13927;51.534;11.866;2022-10-16T09:26:43;20.00;99.90
26182;DHT22;13927;51.534;11.866;2022-10-16T09:29:15;20.20;99.90
26182;DHT22;13927;51.534;11.866;2022-10-16T09:31:42;20.30;99.90
26182;DHT22;13927;51.534;11.866;2022-10-16T09:37:00;20.30;99.90
26182;DHT22;13927;51.534;11.866;2022-10-16T09:39:29;20.20;99.90
26182;DHT22;13927;51.534;11.866;2022-10-16T09:41:55;20.10;99.90
26182;DHT22;13927;51.534;11.866;2022-10-16T09:44:28;19.90;99.90
26182;DHT22;13927;51.534;11.866;2022-10-16T09:47:13;19.90;99.90
26182;DHT22;13927;51.534;11.866;2022-10-16T09:50:04;20.00;99.90
26182;DHT22;13927;51.534;11.866;2022-10-16T09:52:44;20.10;99.90
26182;DHT22;13927;51.534;11.866;2022-10-16T09:55:16;20.20;99.90
26182;DHT22;13927;51.534;11.866;2022-10-16T09:57:54;20.20;99.90
26182;DHT22;13927;51.534;11.866;2022-10-16T10:00:22;20.30;99.90
26182;DHT22;13927;51.534;11.866;2022-10-16T10:02:49;20.30;99.90
26182;DHT22;13927;51.534;11.866;2022-10-16T10:05:24;20.20;99.90
26182;DHT22;13927;51.534;11.866;2022-10-16T10:08:02;20.30;99.90
26182;DHT22;13927;51.534;11.866;2022-10-16T10:10:41;20.20;99.90
26182;DHT22;13927;51.534;11.866;2022-10-16T10:13:22;20.10;99.90
26182;DHT22;13927;51.534;11.866;2022-10-16T10:15:50;20.10;99.90
26182;DHT22;13927;51.534;11.866;2022-10-16T10:18:21;20.10;99.90
26182;DHT22;13927;51.534;11.866;2022-10-16T10:21:00;20.10;99.90
26182;DHT22;13927;51.534;11.866;2022-10-16T10:23:29;20.10;99.90
26182;DHT22;13927;51.534;11.866;2022-10-16T10:26:18;20.30;99.90
26182;DHT22;13927;51.534;11.866;2022-10-16T10:35:22;20.10;99.90
26182;DHT22;13927;51.534;11.866;2022-10-16T11:05:53;20.10;99.90
26182;DHT22;13927;51.534;11.866;2022-10-16T11:08:27;20.00;99.90
26182;DHT22;13927;51.534;11.866;2022-10-16T11:11:13;20.00;99.90
26182;DHT22;13927;51.534;11.866;2022-10-16T11:16:51;20.00;99.90
26182;DHT22;13927;51.534;11.866;2022-10-16T11:19:35;20.00;99.90
26182;DHT22;13927;51.534;11.866;2022-10-16T11:22:13;20.00;99.90
26182;DHT22;13927;51.534;11.866;2022-10-16T11:28:07;20.40;99.90
26182;DHT22;13927;51.534;11.866;2022-10-16T11:30:54;20.40;99.90
26182;DHT22;13927;51.534;11.866;2022-10-16T11:33:41;20.50;99.90
26182;DHT22;13927;51.534;11.866;2022-10-16T11:36:15;20.40;99.90
26182;DHT22;13927;51.534;11.866;2022-10-16T11:39:00;20.30;99.90
26182;DHT22;13927;51.534;11.866;2022-10-16T11:41:51;20.40;99.90
26182;DHT22;13927;51.534;11.866;2022-10-16T11:50:54;21.70;99.90
26182;DHT22;13927;51.534;11.866;2022-10-16T11:54:01;22.00;99.90
26182;DHT22;13927;51.534;11.866;2022-10-16T11:56:37;21.90;99.90
26182;DHT22;13927;51.534;11.866;2022-10-16T12:01:56;21.30;99.90
26182;DHT22;13927;51.534;11.866;2022-10-16T12:07:14;21.30;99.90
26182;DHT22;13927;51.534;11.866;2022-10-16T12:09:43;21.40;99.90
26182;DHT22;13927;51.534;11.866;2022-10-16T12:12:38;21.30;99.90
26182;DHT22;13927;51.534;11.866;2022-10-16T12:17:50;21.30;99.90
26182;DHT22;13927;51.534;11.866;2022-10-16T12:22:55;21.70;99.90
26182;DHT22;13927;51.534;11.866;2022-10-16T12:28:20;21.60;99.90
26182;DHT22;13927;51.534;11.866;2022-10-16T12:31:00;21.60;99.90
26182;DHT22;13927;51.534;11.866;2022-10-16T12:34:19;21.60;99.90
26182;DHT22;13927;51.534;11.866;2022-10-16T12:36:32;21.90;99.90
26182;DHT22;13927;51.534;11.866;2022-10-16T12:39:00;22.10;99.90
26182;DHT22;13927;51.534;11.866;2022-10-16T12:41:32;22.20;99.90
26182;DHT22;13927;51.534;11.866;2022-10-16T12:44:01;22.50;99.90
26182;DHT22;13927;51.534;11.866;2022-10-16T12:51:57;23.10;99.90
26182;DHT22;13927;51.534;11.866;2022-10-16T12:54:35;23.20;99.90
26182;DHT22;13927;51.534;11.866;2022-10-16T12:57:43;23.10;99.90
26182;DHT22;13927;51.534;11.866;2022-10-16T13:00:56;23.00;99.90
26182;DHT22;13927;51.534;11.866;2022-10-16T13:06:45;22.20;99.90
26182;DHT22;13927;51.534;11.866;2022-10-16T13:09:29;22.00;99.90
26182;DHT22;13927;51.534;11.866;2022-10-16T13:18:15;23.00;99.90
26182;DHT22;13927;51.534;11.866;2022-10-16T13:21:19;23.60;99.90
26182;DHT22;13927;51.534;11.866;2022-10-16T13:29:32;24.00;99.90
26182;DHT22;13927;51.534;11.866;2022-10-16T13:32:00;24.00;99.90
26182;DHT22;13927;51.534;11.866;2022-10-16T13:34:32;23.80;99.90
26182;DHT22;13927;51.534;11.866;2022-10-16T13:36:58;23.50;99.90
26182;DHT22;13927;51.534;11.866;2022-10-16T13:39:28;23.20;99.90
26182;DHT22;13927;51.534;11.866;2022-10-16T13:42:23;22.80;99.90
26182;DHT22;13927;51.534;11.866;2022-10-16T13:44:52;22.40;99.90
26182;DHT22;13927;51.534;11.866;2022-10-16T13:47:25;22.20;99.90
26182;DHT22;13927;51.534;11.866;2022-10-16T13:50:14;22.00;99.90
26182;DHT22;13927;51.534;11.866;2022-10-16T13:52:41;21.80;99.90
26182;DHT22;13927;51.534;11.866;2022-10-16T13:55:12;21.60;99.90
26182;DHT22;13927;51.534;11.866;2022-10-16T13:57:40;21.50;99.90
26182;DHT22;13927;51.534;11.866;2022-10-16T14:00:23;21.40;99.90
26182;DHT22;13927;51.534;11.866;2022-10-16T14:02:58;21.40;99.90
26182;DHT22;13927;51.534;11.866;2022-10-16T14:05:27;21.40;99.90
26182;DHT22;13927;51.534;11.866;2022-10-16T14:07:54;21.30;99.90
26182;DHT22;13927;51.534;11.866;2022-10-16T14:10:24;21.30;99.90
26182;DHT22;13927;51.534;11.866;2022-10-16T14:13:03;21.40;99.90
26182;DHT22;13927;51.534;11.866;2022-10-16T14:15:32;21.30;99.90
26182;DHT22;13927;51.534;11.866;2022-10-16T14:17:59;21.30;99.90
26182;DHT22;13927;51.534;11.866;2022-10-16T14:20:32;21.30;99.90
26182;DHT22;13927;51.534;11.866;2022-10-16T14:23:23;21.30;99.90
26182;DHT22;13927;51.534;11.866;2022-10-16T14:26:06;21.40;99.90
26182;DHT22;13927;51.534;11.866;2022-10-16T14:28:38;21.70;99.90
26182;DHT22;13927;51.534;11.866;2022-10-16T14:31:28;21.90;99.90
26182;DHT22;13927;51.534;11.866;2022-10-16T14:33:55;22.10;99.90
26182;DHT22;13927;51.534;11.866;2022-10-16T14:36:22;22.10;99.90
26182;DHT22;13927;51.534;11.866;2022-10-16T14:41:49;22.20;99.90
26182;DHT22;13927;51.534;11.866;2022-10-16T14:44:18;22.70;99.90
26182;DHT22;13927;51.534;11.866;2022-10-16T14:46:45;23.00;99.90
26182;DHT22;13927;51.534;11.866;2022-10-16T14:49:15;23.20;99.90
26182;DHT22;13927;51.534;11.866;2022-10-16T14:51:43;23.20;99.90
26182;DHT22;13927;51.534;11.866;2022-10-16T14:54:12;23.40;99.90
26182;DHT22;13927;51.534;11.866;2022-10-16T14:56:47;23.80;99.90
26182;DHT22;13927;51.534;11.866;2022-10-16T14:59:38;24.10;99.90
26182;DHT22;13927;51.534;11.866;2022-10-16T15:02:30;24.30;99.90
26182;DHT22;13927;51.534;11.866;2022-10-16T15:04:59;24.30;99.90
26182;DHT22;13927;51.534;11.866;2022-10-16T15:07:36;24.50;99.90
26182;DHT22;13927;51.534;11.866;2022-10-16T15:10:02;24.80;99.90
26182;DHT22;13927;51.534;11.866;2022-10-16T15:12:28;25.30;99.90
26182;DHT22;13927;51.534;11.866;2022-10-16T15:14:54;25.40;99.90
26182;DHT22;13927;51.534;11.866;2022-10-16T15:17:20;25.40;99.90
26182;DHT22;13927;51.534;11.866;2022-10-16T15:19:46;25.40;99.90
26182;DHT22;13927;51.534;11.866;2022-10-16T15:22:11;25.30;99.90
26182;DHT22;13927;51.534;11.866;2022-10-16T15:24:38;25.00;99.90
26182;DHT22;13927;51.534;11.866;2022-10-16T15:27:03;24.50;99.90
26182;DHT22;13927;51.534;11.866;2022-10-16T15:29:29;24.00;99.90
26182;DHT22;13927;51.534;11.866;2022-10-16T15:31:56;23.40;99.90
26182;DHT22;13927;51.534;11.866;2022-10-16T15:34:22;22.70;99.90
26182;DHT22;13927;51.534;11.866;2022-10-16T15:36:48;22.30;99.90
26182;DHT22;13927;51.534;11.866;2022-10-16T15:39:15;22.00;99.90
26182;DHT22;13927;51.534;11.866;2022-10-16T15:41:44;21.70;99.90
26182;DHT22;13927;51.534;11.866;2022-10-16T15:44:10;21.50;99.90
26182;DHT22;13927;51.534;11.866;2022-10-16T15:46:36;21.30;99.90
26182;DHT22;13927;51.534;11.866;2022-10-16T15:49:02;21.20;99.90
26182;DHT22;13927;51.534;11.866;2022-10-16T15:51:29;21.10;99.90
26182;DHT22;13927;51.534;11.866;2022-10-16T15:53:58;21.00;99.90
26182;DHT22;13927;51.534;11.866;2022-10-16T15:56:27;20.90;99.90
26182;DHT22;13927;51.534;11.866;2022-10-16T15:58:54;20.80;99.90
26182;DHT22;13927;51.534;11.866;2022-10-16T16:01:21;20.70;99.90
26182;DHT22;13927;51.534;11.866;2022-10-16T16:03:47;20.60;99.90
26182;DHT22;13927;51.534;11.866;2022-10-16T16:06:13;20.60;99.90
26182;DHT22;13927;51.534;11.866;2022-10-16T16:08:40;20.50;99.90
26182;DHT22;13927;51.534;11.866;2022-10-16T16:11:06;20.40;99.90
26182;DHT22;13927;51.534;11.866;2022-10-16T16:13:34;20.30;99.90
26182;DHT22;13927;51.534;11.866;2022-10-16T16:16:05;20.20;99.90
26182;DHT22;13927;51.534;11.866;2022-10-16T16:18:33;20.10;99.90
26182;DHT22;13927;51.534;11.866;2022-10-16T16:20:58;20.00;99.90
26182;DHT22;13927;51.534;11.866;2022-10-16T16:23:24;19.80;99.90
26182;DHT22;13927;51.534;11.866;2022-10-16T16:26:07;19.70;99.90
26182;DHT22;13927;51.534;11.866;2022-10-16T16:28:35;19.60;99.90
26182;DHT22;13927;51.534;11.866;2022-10-16T16:31:01;19.40;99.90
26182;DHT22;13927;51.534;11.866;2022-10-16T16:33:28;19.30;99.90
26182;DHT22;13927;51.534;11.866;2022-10-16T16:35:58;19.20;99.90
26182;DHT22;13927;51.534;11.866;2022-10-16T16:38:25;19.10;99.90
26182;DHT22;13927;51.534;11.866;2022-10-16T16:40:51;19.00;99.90
26182;DHT22;13927;51.534;11.866;2022-10-16T16:43:18;18.90;99.90
26182;DHT22;13927;51.534;11.866;2022-10-16T16:45:44;18.80;99.90
26182;DHT22;13927;51.534;11.866;2022-10-16T16:48:10;18.70;99.90
26182;DHT22;13927;51.534;11.866;2022-10-16T16:50:38;18.60;99.90
26182;DHT22;13927;51.534;11.866;2022-10-16T16:53:04;18.50;99.90
26182;DHT22;13927;51.534;11.866;2022-10-16T16:55:30;18.30;99.90
26182;DHT22;13927;51.534;11.866;2022-10-16T16:57:56;18.30;99.90
26182;DHT22;13927;51.534;11.866;2022-10-16T17:00:24;18.20;99.90
26182;DHT22;13927;51.534;11.866;2022-10-16T17:02:50;18.10;99.90
26182;DHT22;13927;51.534;11.866;2022-10-16T17:05:17;18.10;99.90
26182;DHT22;13927;51.534;11.866;2022-10-16T17:07:43;18.00;99.90
26182;DHT22;13927;51.534;11.866;2022-10-16T17:10:09;17.90;99.90
26182;DHT22;13927;51.534;11.866;2022-10-16T17:12:35;17.80;99.90
26182;DHT22;13927;51.534;11.866;2022-10-16T17:15:02;17.80;99.90
26182;DHT22;13927;51.534;11.866;2022-10-16T17:17:28;17.70;99.90
26182;DHT22;13927;51.534;11.866;2022-10-16T17:19:53;17.70;99.90
26182;DHT22;13927;51.534;11.866;2022-10-16T17:22:19;17.60;99.90
26182;DHT22;13927;51.534;11.866;2022-10-16T17:24:48;17.60;99.90
26182;DHT22;13927;51.534;11.866;2022-10-16T17:27:17;17.50;99.90
26182;DHT22;13927;51.534;11.866;2022-10-16T17:29:43;17.50;99.90
26182;DHT22;13927;51.534;11.866;2022-10-16T17:32:09;17.50;99.90
26182;DHT22;13927;51.534;11.866;2022-10-16T17:34:35;17.40;99.90
26182;DHT22;13927;51.534;11.866;2022-10-16T17:37:01;17.40;99.90
26182;DHT22;13927;51.534;11.866;2022-10-16T17:39:28;17.30;99.90